Latest Coastal Weather Observations for Orbost

IDV60701

Issued at 8:35 am EDT Tuesday 21 October 2014 (issued every 10 minutes, with the page automatically refreshed every 10 minutes)

About coastal observations | Map of coastal stations | Coastal observations for VIC | Marine services | Other Formats
Station Details ID: 084145 Name: ORBOST Lat: -37.69 Lon: 148.47 Height: 62.65 m
Data from the previous 72 hours. | See also: Recent months at Orbost
Date/Time
EDT
Temp

°C
Wind Pressure Rain
since 9am
mm
Weather Cloud Vis
km
Sea
Height
m
Swell
Dir
 
Speed
knots
Gust
knots
hPa Trend Height
m
Period
s
Dir
21/08:30am 14.3 E 4 5 1030.0 - 0.0 - - - - - - -
21/08:00am 12.9 E 4 8 1029.9 - 0.0 - - - - - - -
21/07:30am 11.8 E 5 8 1029.8 - 0.0 - - - - - - -
21/07:00am 10.4 E 5 7 1029.7 - 0.0 - - - - - - -
21/06:30am 8.6 E 3 5 1029.7 - 0.0 - - - - - - -
21/06:00am 7.6 E 2 3 1029.5 - 0.0 - - - - - - -
21/05:30am 7.6 E 3 3 1029.5 - 0.0 - - - - - - -
21/05:00am 7.3 ESE 2 3 1029.7 - 0.0 - - - - - - -
21/04:30am 7.6 E 1 2 1029.8 - 0.0 - - - - - - -
21/04:00am 7.8 E 2 3 1029.9 - 0.0 - - - - - - -
21/03:30am 8.8 E 3 5 1030.1 - 0.0 - - - - - - -
21/03:00am 9.1 E 4 7 1030.3 - 0.0 - - - - - - -
21/02:30am 8.3 ESE 2 3 1030.6 - 0.0 - - - - - - -
21/02:00am 8.4 ESE 2 3 1030.8 - 0.0 - - - - - - -
21/01:30am 9.2 E 3 4 1031.1 - 0.0 - - - - - - -
21/01:00am 10.3 E 4 7 1031.4 - 0.0 - - - - - - -
21/12:30am 10.5 E 5 7 1031.5 - 0.0 - - - - - - -
21/12:00am 10.6 ESE 4 7 1031.7 - 0.0 - - - - - - -
 
Date/Time
EDT
Temp

°C
Wind Pressure Rain
since 9am
mm
Weather Cloud Vis
km
Sea
Height
m
Swell
Dir
 
Speed
knots
Gust
knots
hPa Trend Height
m
Period
s
Dir
20/11:30pm 11.1 ESE 5 9 1031.7 - 0.0 - - - - - - -
20/11:00pm 11.7 ESE 5 9 1031.7 - 0.0 - - - - - - -
20/10:30pm 11.9 E 6 9 1031.7 - 0.0 - - - - - - -
20/10:00pm 12.1 E 6 10 1031.7 - 0.0 - - - - - - -
20/09:30pm 12.3 E 5 10 1031.8 - 0.0 - - - - - - -
20/09:00pm 12.7 E 6 9 1031.7 - 0.0 - - - - - - -
20/08:30pm 13.1 ESE 6 10 1031.5 - 0.0 - - - - - - -
20/08:00pm 13.1 ESE 5 9 1031.3 - 0.0 - - - - - - -
20/07:30pm 13.2 ESE 6 12 1031.1 - 0.0 - - - - - - -
20/07:00pm 13.5 ESE 8 14 1031.0 - 0.0 - - - - - - -
20/06:30pm 13.8 ESE 9 15 1030.8 - 0.0 - - - - - - -
20/06:00pm 14.4 ESE 8 16 1030.7 - 0.0 - - - - - - -
20/05:30pm 14.7 ESE 8 14 1030.8 - 0.0 - - - - - - -
20/05:00pm 14.6 SE 8 15 1030.6 - 0.0 - - - - - - -
20/04:30pm 15.5 ESE 7 13 1030.3 - 0.0 - - - - - - -
20/04:00pm 15.4 SE 9 18 1030.3 - 0.0 - - - - - - -
20/03:30pm 15.8 SE 9 16 1030.4 - 0.0 - - - - - - -
20/03:00pm 15.9 ESE 8 15 1030.4 - 0.0 - - - - - - -
20/02:30pm 15.4 SE 8 14 1030.9 - 0.0 - - - - - - -
20/02:00pm 15.7 SE 7 13 1031.2 - 0.0 - - - - - - -
20/01:30pm 15.7 SE 7 14 1031.4 - 0.0 - - - - - - -
20/01:00pm 15.7 SE 7 13 1031.7 - 0.0 - - - - - - -
20/12:30pm 15.3 SSE 6 11 1032.0 - 0.0 - - - - - - -
20/12:00pm 14.6 SE 6 13 1032.3 - 0.0 - - - - - - -
20/11:30am 15.1 S 4 8 1032.4 - 0.0 - - - - - - -
20/11:00am 14.4 S 6 9 1032.6 - 0.0 - - - - - - -
20/10:30am 14.6 SSE 3 4 1032.6 - 0.0 - - - - - - -
20/10:00am 14.7 W 3 4 1032.5 - 0.0 - - - - - - -
20/09:30am 14.1 ESE 3 6 1032.3 - 0.0 - - - - - - -
20/09:00am 13.4 SW 2 4 1031.9 - 0.4 - - - - - - -
20/08:30am 13.3 WNW 2 4 1031.6 - 0.4 - - - - - - -
20/08:00am 12.7 WSW 2 4 1031.1 - 0.4 - - - - - - -
20/07:30am 12.2 SSW 2 4 1031.0 - 0.4 - - - - - - -
20/07:00am 12.0 S 2 4 1030.8 - 0.4 - - - - - - -
20/06:30am 11.7 SSW 5 7 1030.5 - 0.4 - - - - - - -
20/06:00am 11.8 SSW 6 9 1030.3 - 0.4 - - - - - - -
20/05:30am 11.9 SW 7 10 1029.9 - 0.4 - - - - - - -
20/05:00am 12.0 SW 6 9 1029.6 - 0.4 - - - - - - -
20/04:30am 12.0 WSW 5 8 1029.5 - 0.4 - - - - - - -
20/04:00am 12.1 WSW 6 9 1029.4 - 0.4 - - - - - - -
20/03:30am 12.1 SW 8 14 1029.3 - 0.4 - - - - - - -
20/03:00am 12.2 WSW 8 12 1029.0 - 0.4 - - - - - - -
20/02:30am 12.4 WSW 8 13 1028.9 - 0.4 - - - - - - -
20/02:00am 12.4 SW 8 15 1028.7 - 0.4 - - - - - - -
20/01:30am 12.5 SW 10 15 1028.5 - 0.4 - - - - - - -
20/01:00am 12.4 WSW 7 13 1028.2 - 0.4 - - - - - - -
20/12:30am 12.9 WSW 7 11 1027.8 - 0.2 - - - - - - -
20/12:00am 12.9 WSW 9 16 1027.5 - 0.0 - - - - - - -
 
Date/Time
EDT
Temp

°C
Wind Pressure Rain
since 9am
mm
Weather Cloud Vis
km
Sea
Height
m
Swell
Dir
 
Speed
knots
Gust
knots
hPa Trend Height
m
Period
s
Dir
19/11:30pm 14.4 WSW 7 11 1026.9 - 0.0 - - - - - - -
19/11:00pm 14.5 W 8 13 1026.4 - 0.0 - - - - - - -
19/10:30pm 14.5 WSW 5 9 1026.2 - 0.0 - - - - - - -
19/10:00pm 14.6 WSW 8 12 1025.7 - 0.0 - - - - - - -
19/09:30pm 14.7 WSW 5 9 1025.2 - 0.0 - - - - - - -
19/09:00pm 14.9 WSW 4 7 1024.4 - 0.0 - - - - - - -
19/08:30pm 15.2 WSW 8 13 1023.3 - 0.0 - - - - - - -
19/08:00pm 16.8 SSW 13 22 1021.7 - 0.0 - - - - - - -
19/07:51pm 19.1 SW 15 22 1020.9 - 0.0 - - - - - - -
19/07:30pm 22.3 NNW 4 6 1019.5 - 0.0 - - - - - - -
19/07:00pm 22.6 N 6 9 1019.2 - 0.0 - - - - - - -
19/06:30pm 23.9 W 1 2 1019.0 - 0.0 - - - - - - -
19/06:00pm 24.7 NW 3 5 1018.5 - 0.0 - - - - - - -
19/05:30pm 25.0 NW 6 9 1018.3 - 0.0 - - - - - - -
19/05:00pm 25.8 NNW 7 13 1018.0 - 0.0 - - - - - - -
19/04:30pm 28.1 WNW 6 10 1017.9 - 0.0 - - - - - - -
19/04:00pm 28.5 WNW 6 8 1017.9 - 0.0 - - - - - - -
19/03:30pm 28.9 WNW 6 10 1018.0 - 0.0 - - - - - - -
19/03:00pm 29.1 NNW 5 8 1018.3 - 0.0 - - - - - - -
19/02:30pm 29.2 NW 8 12 1018.6 - 0.0 - - - - - - -
19/02:00pm 28.9 NW 7 14 1019.2 - 0.0 - - - - - - -
19/01:30pm 28.6 NW 6 10 1019.5 - 0.0 - - - - - - -
19/01:00pm 26.9 NNW 7 12 1019.7 - 0.0 - - - - - - -
19/12:30pm 27.6 NNW 9 14 1020.2 - 0.0 - - - - - - -
19/12:00pm 26.8 NW 6 13 1020.6 - 0.0 - - - - - - -
19/11:30am 25.7 NW 4 6 1020.8 - 0.0 - - - - - - -
19/11:00am 24.8 NNW 7 9 1020.9 - 0.0 - - - - - - -
19/10:30am 23.3 NNW 4 7 1021.3 - 0.0 - - - - - - -
19/10:00am 22.6 NW 2 5 1021.4 - 0.0 - - - - - - -
19/09:30am 21.1 W 2 3 1021.5 - 0.0 - - - - - - -
19/09:00am 19.8 N 1 3 1021.4 - 0.0 - - - - - - -
19/08:30am 16.1 CALM 0 0 1021.4 - 0.0 - - - - - - -
19/08:00am 14.5 SSW 1 2 1021.2 - 0.0 - - - - - - -
19/07:30am 14.0 N 3 5 1020.9 - 0.0 - - - - - - -
19/07:00am 12.5 NNW 2 3 1021.1 - 0.0 - - - - - - -
19/06:30am 12.6 WNW 1 2 1021.1 - 0.0 - - - - - - -
19/06:00am 12.1 W 1 2 1021.0 - 0.0 - - - - - - -
19/05:30am 14.4 NE 3 5 1020.9 - 0.0 - - - - - - -
19/05:00am 14.0 NNE 4 5 1021.2 - 0.0 - - - - - - -
19/04:30am 13.2 CALM 0 2 1021.5 - 0.0 - - - - - - -
19/04:00am 13.2 CALM 0 0 1021.8 - 0.0 - - - - - - -
19/03:30am 12.7 N 4 5 1021.9 - 0.0 - - - - - - -
19/03:00am 12.0 N 2 3 1022.5 - 0.0 - - - - - - -
19/02:30am 12.8 CALM 0 0 1022.6 - 0.0 - - - - - - -
19/02:00am 12.2 CALM 0 0 1022.8 - 0.0 - - - - - - -
19/01:30am 12.8 CALM 0 0 1023.2 - 0.0 - - - - - - -
19/01:00am 11.6 CALM 0 0 1023.4 - 0.0 - - - - - - -
19/12:30am 12.3 NNE 2 4 1023.9 - 0.0 - - - - - - -
19/12:00am 12.9 N 3 4 1024.0 - 0.0 - - - - - - -
 
Date/Time
EDT
Temp

°C
Wind Pressure Rain
since 9am
mm
Weather Cloud Vis
km
Sea
Height
m
Swell
Dir
 
Speed
knots
Gust
knots
hPa Trend Height
m
Period
s
Dir
18/11:30pm 13.0 N 3 4 1024.2 - 0.0 - - - - - - -
18/11:00pm 13.8 N 3 4 1024.4 - 0.0 - - - - - - -
18/10:30pm 13.7 CALM 0 0 1024.4 - 0.0 - - - - - - -
18/10:00pm 13.9 CALM 0 0 1024.3 - 0.0 - - - - - - -
18/09:30pm 14.6 W 1 2 1024.2 - 0.0 - - - - - - -
18/09:00pm 16.2 E 4 7 1023.1 - 0.0 - - - - - - -
18/08:30pm 15.8 ENE 6 10 1023.1 - 0.0 - - - - - - -
18/08:00pm 15.0 ENE 3 5 1024.1 - 0.0 - - - - - - -
18/07:30pm 16.2 ESE 1 2 1024.3 - 0.0 - - - - - - -
18/07:00pm 17.3 ESE 3 5 1023.9 - 0.0 - - - - - - -
18/06:30pm 17.7 ESE 3 6 1023.6 - 0.0 - - - - - - -
18/06:00pm 18.9 SSE 4 7 1023.4 - 0.0 - - - - - - -
18/05:30pm 19.3 SSE 3 4 1023.3 - 0.0 - - - - - - -
18/05:00pm 20.0 SSE 4 7 1023.2 - 0.0 - - - - - - -
18/04:30pm 19.9 SSE 4 6 1023.4 - 0.0 - - - - - - -
18/04:00pm 19.6 S 4 7 1023.7 - 0.0 - - - - - - -
18/03:30pm 19.9 SSE 5 7 1023.8 - 0.0 - - - - - - -
18/03:00pm 20.3 S 5 8 1024.4 - 0.0 - - - - - - -
18/02:30pm 19.9 S 5 9 1024.8 - 0.0 - - - - - - -
18/02:00pm 19.8 SSE 5 8 1025.1 - 0.0 - - - - - - -
18/01:30pm 19.5 S 5 9 1025.4 - 0.0 - - - - - - -
18/01:00pm 20.6 WNW 3 5 1025.7 - 0.0 - - - - - - -
18/12:30pm 20.4 SSW 2 5 1026.1 - 0.0 - - - - - - -
18/12:00pm 19.4 SSW 1 4 1026.4 - 0.0 - - - - - - -
18/11:30am 18.8 S 2 4 1026.6 - 0.0 - - - - - - -
18/11:00am 17.6 S 1 3 1026.9 - 0.0 - - - - - - -
18/10:30am 16.9 SSW 2 3 1027.3 - 0.0 - - - - - - -
18/10:00am 15.9 W 2 4 1027.6 - 0.0 - - - - - - -
18/09:30am 14.3 S 1 2 1027.7 - 0.0 - - - - - - -
18/09:00am 13.0 SW 1 3 1027.8 - 0.6 - - - - - - -

Other Formats:

Comma delimited format used in spreadsheet applications
http://www.bom.gov.au/fwo/IDV60701/IDV60701.95918.axf

JavaScript Object Notation format (JSON) in row-major order
http://www.bom.gov.au/fwo/IDV60701/IDV60701.95918.json